KSAA/SAA METAR and TAF weather

Enter ICAO airport designator
Station Type Date Time Source
KSAA METAR 2020/07/04 08:15 UTC NOAA

KSAA 040815Z AUTO 16010KT 10SM CLR 16/00 A3028 RMK AO2


Station Type Date Time Source
KSAA Decoded METAR 2020/07/04 08:15 UTC NOAA

Station name not available
Jul 04, 2020 - 04:15 AM EDT / 2020.07.04 0815 UTC
Wind: from the SSE (160 degrees) at 12 MPH (10 KT):0
Visibility: 10 mile(s):0
Sky conditions: clear
Temperature: 60 F (16 C)
Dew Point: 32 F (0 C)
Relative Humidity: 33%
Pressure (altimeter): 30.28 in. Hg (1025 hPa)
ob: KSAA 040815Z AUTO 16010KT 10SM CLR 16/00 A3028 RMK AO2
cycle: 8

Station Type Date Time Source
KSAA TAF UTC NOAA

Error!

Example: see airport list